createdAt,value
2019-02-11T00:01:21.146Z,100.00
2019-02-11T00:03:49.645Z,100.00
2019-02-11T00:06:18.978Z,100.00
2019-02-11T00:08:47.375Z,100.00
2019-02-11T00:11:16.681Z,100.00
2019-02-11T00:13:45.982Z,100.00
2019-02-11T00:16:15.310Z,100.00
2019-02-11T00:18:44.617Z,100.00
2019-02-11T00:21:13.939Z,100.00
2019-02-11T00:23:43.266Z,100.00
2019-02-11T00:26:12.577Z,100.00
2019-02-11T00:28:41.082Z,100.00
2019-02-11T00:31:26.391Z,100.00
2019-02-11T00:33:55.037Z,100.00
2019-02-11T00:36:24.360Z,100.00
2019-02-11T00:38:53.676Z,100.00
2019-02-11T00:41:22.991Z,100.00
2019-02-11T00:43:52.295Z,100.00
2019-02-11T00:46:20.799Z,100.00
2019-02-11T00:48:49.309Z,100.00
2019-02-11T00:51:18.782Z,100.00
2019-02-11T00:53:48.084Z,100.00
2019-02-11T00:56:17.403Z,100.00
2019-02-11T00:58:46.703Z,100.00
2019-02-11T01:01:16.015Z,100.00
2019-02-11T01:03:45.318Z,100.00
2019-02-11T01:06:13.930Z,100.00
2019-02-11T01:08:42.329Z,100.00
2019-02-11T01:11:10.846Z,100.00
2019-02-11T01:13:40.152Z,100.00
2019-02-11T01:16:09.457Z,100.00
2019-02-11T01:18:38.763Z,100.00
2019-02-11T01:21:08.079Z,100.00
2019-02-11T01:23:37.398Z,100.00
2019-02-11T01:26:06.696Z,100.00
2019-02-11T01:28:35.221Z,100.00
2019-02-11T01:31:03.727Z,100.00
2019-02-11T01:33:33.058Z,100.00
2019-02-11T01:36:02.369Z,100.00
2019-02-11T01:38:31.666Z,100.00
2019-02-11T01:41:00.979Z,100.00
2019-02-11T01:43:35.951Z,100.00
2019-02-11T01:46:19.519Z,100.00
2019-02-11T01:48:48.839Z,100.00
2019-02-11T01:51:18.164Z,100.00
2019-02-11T01:53:47.478Z,100.00
2019-02-11T01:56:15.992Z,100.00
2019-02-11T01:58:45.260Z,100.00
2019-02-11T02:01:14.595Z,100.00
2019-02-11T02:03:43.902Z,100.00
2019-02-11T02:06:13.202Z,100.00
2019-02-11T02:08:42.611Z,100.00
2019-02-11T02:11:11.909Z,100.00
2019-02-11T02:13:44.869Z,100.00
2019-02-11T02:16:30.434Z,100.00
2019-02-11T02:18:59.749Z,100.00
2019-02-11T02:21:28.248Z,100.00
2019-02-11T02:23:57.567Z,100.00
2019-02-11T02:26:26.878Z,100.00
2019-02-11T02:28:56.195Z,100.00
2019-02-11T02:31:25.517Z,100.00
2019-02-11T02:33:54.819Z,100.00
2019-02-11T02:36:24.126Z,100.00
2019-02-11T02:38:52.628Z,100.00
2019-02-11T02:41:21.933Z,100.00
2019-02-11T02:43:55.667Z,100.00
2019-02-11T02:46:40.439Z,100.00
2019-02-11T02:49:09.754Z,100.00
2019-02-11T02:51:38.267Z,100.00
2019-02-11T02:54:07.582Z,100.00
2019-02-11T02:56:36.887Z,100.00
2019-02-11T02:59:06.189Z,100.00
2019-02-11T03:01:35.519Z,100.00
2019-02-11T03:04:04.836Z,100.00
2019-02-11T03:06:34.143Z,100.00
2019-02-11T03:11:46.831Z,100.00
2019-02-11T03:14:16.303Z,100.00
2019-02-11T03:16:45.622Z,100.00
2019-02-11T03:19:14.946Z,100.00
2019-02-11T03:21:44.259Z,100.00
2019-02-11T03:24:13.569Z,100.00
2019-02-11T03:26:42.878Z,100.00
2019-02-11T03:29:11.383Z,100.00
2019-02-11T03:31:40.720Z,100.00
2019-02-11T03:34:10.031Z,100.00
2019-02-11T03:36:39.341Z,100.00
2019-02-11T03:39:08.658Z,100.00
2019-02-11T03:41:37.974Z,100.00
2019-02-11T03:44:14.923Z,100.00
2019-02-11T03:46:56.539Z,100.00
2019-02-11T03:49:25.856Z,100.00
2019-02-11T03:51:54.261Z,100.00
2019-02-11T03:54:22.666Z,100.00
2019-02-11T03:59:54.526Z,100.00
2019-02-11T04:02:23.143Z,100.00
2019-02-11T04:04:52.458Z,100.00
2019-02-11T04:07:21.777Z,100.00
2019-02-11T04:09:51.083Z,100.00
2019-02-11T04:12:20.406Z,100.00
2019-02-11T04:14:49.720Z,100.00
2019-02-11T04:17:19.031Z,100.00
2019-02-11T04:19:47.454Z,100.00
2019-02-11T04:22:15.877Z,100.00
2019-02-11T04:24:44.381Z,100.00
2019-02-11T04:27:13.694Z,100.00
2019-02-11T04:29:42.993Z,100.00
2019-02-11T04:32:12.303Z,100.00
2019-02-11T04:34:41.619Z,100.00
2019-02-11T04:37:10.132Z,100.00
2019-02-11T04:39:39.531Z,100.00
2019-02-11T04:42:08.842Z,100.00
2019-02-11T04:44:38.149Z,100.00
2019-02-11T04:47:07.454Z,100.00
2019-02-11T04:49:36.060Z,100.00
2019-02-11T04:52:05.371Z,100.00
2019-02-11T04:54:34.668Z,100.00
2019-02-11T04:57:04.036Z,100.00
2019-02-11T04:59:33.405Z,100.00
2019-02-11T05:02:02.702Z,100.00
2019-02-11T05:04:32.008Z,100.00
2019-02-11T05:07:01.335Z,100.00
2019-02-11T05:09:29.855Z,100.00
2019-02-11T05:11:58.368Z,100.00
2019-02-11T05:14:27.689Z,100.00
2019-02-11T05:16:57.006Z,100.00
2019-02-11T05:19:26.311Z,100.00
2019-02-11T05:24:57.229Z,100.00
2019-02-11T05:27:26.537Z,100.00
2019-02-11T05:29:54.942Z,100.00
2019-02-11T05:32:35.706Z,100.00
2019-02-11T05:35:04.859Z,100.00
2019-02-11T05:37:34.426Z,100.00
2019-02-11T05:42:45.800Z,100.00
2019-02-11T05:45:15.115Z,100.00
2019-02-11T05:47:44.420Z,100.00
2019-02-11T05:50:13.750Z,100.00
2019-02-11T05:52:42.360Z,100.00
2019-02-11T05:58:13.171Z,100.00
2019-02-11T06:00:41.687Z,100.00
2019-02-11T06:03:11.008Z,100.00
2019-02-11T06:05:40.342Z,100.00
2019-02-11T06:08:09.647Z,100.00
2019-02-11T06:10:38.968Z,100.00
2019-02-11T06:13:08.294Z,100.00
2019-02-11T06:15:37.604Z,100.00
2019-02-11T06:18:06.927Z,100.00
2019-02-11T06:20:35.350Z,100.00
2019-02-11T06:23:03.879Z,100.00
2019-02-11T06:28:34.991Z,100.00
2019-02-11T06:31:03.595Z,100.00
2019-02-11T06:33:32.913Z,100.00
2019-02-11T06:36:11.436Z,100.00
2019-02-11T06:38:51.493Z,100.00
2019-02-11T06:41:20.797Z,100.00
2019-02-11T06:43:50.120Z,100.00
2019-02-11T06:46:19.413Z,100.00
2019-02-11T06:48:48.716Z,100.00
2019-02-11T06:51:18.039Z,100.00
2019-02-11T06:53:46.447Z,100.00
2019-02-11T06:56:15.122Z,100.00
2019-02-11T06:58:44.436Z,100.00
2019-02-11T07:01:13.754Z,100.00
2019-02-11T07:03:43.073Z,100.00
2019-02-11T07:06:12.410Z,100.00
2019-02-11T07:08:41.722Z,100.00
2019-02-11T07:11:11.032Z,100.00
2019-02-11T07:13:40.399Z,100.00
2019-02-11T07:16:08.910Z,100.00
2019-02-11T07:18:37.430Z,100.00
2019-02-11T07:21:06.744Z,100.00
2019-02-11T07:23:36.079Z,100.00
2019-02-11T07:26:05.399Z,100.00
2019-02-11T07:28:34.717Z,100.00
2019-02-11T07:31:04.021Z,100.00
2019-02-11T07:33:33.360Z,100.00
2019-02-11T07:36:02.658Z,100.00
2019-02-11T07:38:31.966Z,100.00
2019-02-11T07:41:00.479Z,100.00
2019-02-11T07:43:32.528Z,100.00
2019-02-11T07:46:21.301Z,100.00
2019-02-11T07:48:49.903Z,100.00
2019-02-11T07:51:19.211Z,100.00
2019-02-11T07:53:48.526Z,100.00
2019-02-11T07:56:17.843Z,100.00
2019-02-11T07:58:47.165Z,100.00
2019-02-11T08:01:16.485Z,100.00
2019-02-11T08:03:44.995Z,100.00
2019-02-11T08:06:14.320Z,100.00
2019-02-11T08:08:43.631Z,100.00
2019-02-11T08:11:12.527Z,100.00
2019-02-11T08:13:40.956Z,100.00
2019-02-11T08:16:09.468Z,100.00
2019-02-11T08:18:38.787Z,100.00
2019-02-11T08:21:08.124Z,100.00
2019-02-11T08:23:36.628Z,100.00
2019-02-11T08:26:06.268Z,100.00
2019-02-11T08:28:55.251Z,100.00
2019-02-11T08:31:23.868Z,100.00
2019-02-11T08:33:52.375Z,100.00
2019-02-11T08:36:20.903Z,100.00
2019-02-11T08:38:50.210Z,100.00
2019-02-11T08:41:19.524Z,100.00
2019-02-11T08:43:48.833Z,100.00
2019-02-11T08:46:18.154Z,100.00
2019-02-11T08:48:46.758Z,100.00
2019-02-11T08:51:16.074Z,100.00
2019-02-11T08:53:44.600Z,100.00
2019-02-11T08:56:13.023Z,100.00
2019-02-11T08:58:42.340Z,100.00
2019-02-11T09:01:11.671Z,100.00
2019-02-11T09:03:40.972Z,100.00
2019-02-11T09:06:10.299Z,100.00
2019-02-11T09:08:39.598Z,100.00
2019-02-11T09:11:08.111Z,100.00
2019-02-11T09:13:36.529Z,100.00
2019-02-11T09:16:06.061Z,100.00
2019-02-11T09:18:35.370Z,100.00
2019-02-11T09:21:04.004Z,100.00
2019-02-11T09:23:33.335Z,100.00
2019-02-11T09:26:02.653Z,100.00
2019-02-11T09:28:31.978Z,100.00
2019-02-11T09:31:01.313Z,100.00
2019-02-11T09:33:30.637Z,100.00
2019-02-11T09:35:59.979Z,100.00
2019-02-11T09:38:29.306Z,100.00
2019-02-11T09:40:57.744Z,100.00
2019-02-11T09:43:27.066Z,100.00
2019-02-11T09:46:03.700Z,100.00
2019-02-11T09:48:45.897Z,100.00
2019-02-11T09:51:15.242Z,100.00
2019-02-11T09:53:44.554Z,100.00
2019-02-11T09:56:13.853Z,100.00
2019-02-11T09:58:42.358Z,100.00
2019-02-11T10:01:11.675Z,100.00
2019-02-11T10:03:41.009Z,100.00
2019-02-11T10:06:10.322Z,100.00
2019-02-11T10:08:38.828Z,100.00
2019-02-11T10:11:07.351Z,100.00
2019-02-11T10:13:36.672Z,100.00
2019-02-11T10:16:12.299Z,100.00
2019-02-11T10:18:55.219Z,100.00
2019-02-11T10:21:24.532Z,100.00
2019-02-11T10:23:53.866Z,100.00
2019-02-11T10:26:23.193Z,100.00
2019-02-11T10:28:52.511Z,100.00
2019-02-11T10:31:20.920Z,100.00
2019-02-11T10:33:50.354Z,100.00
2019-02-11T10:36:19.673Z,100.00
2019-02-11T10:38:49.094Z,100.00
2019-02-11T10:41:18.562Z,100.00
2019-02-11T10:43:47.951Z,100.00
2019-02-11T10:46:21.072Z,100.00
2019-02-11T10:49:06.584Z,100.00
2019-02-11T10:51:35.889Z,100.00
2019-02-11T10:54:05.394Z,100.00
2019-02-11T10:56:34.037Z,100.00
2019-02-11T10:59:03.370Z,100.00
2019-02-11T11:01:32.673Z,100.00
2019-02-11T11:04:01.194Z,100.00
2019-02-11T11:06:30.558Z,100.00
2019-02-11T11:09:00.120Z,100.00
2019-02-11T11:11:29.436Z,100.00
2019-02-11T11:13:58.841Z,100.00
2019-02-11T11:16:29.682Z,100.00
2019-02-11T11:19:17.360Z,100.00
2019-02-11T11:21:46.873Z,100.00
2019-02-11T11:24:15.390Z,100.00
2019-02-11T11:26:43.911Z,100.00
2019-02-11T11:29:13.237Z,100.00
2019-02-11T11:31:42.752Z,100.00
2019-02-11T11:37:14.663Z,100.00
2019-02-11T11:39:44.027Z,100.00
2019-02-11T11:42:13.542Z,100.00
2019-02-11T11:44:42.859Z,100.00
2019-02-11T11:47:12.287Z,100.00
2019-02-11T11:49:41.614Z,100.00
2019-02-11T11:52:10.935Z,100.00
2019-02-11T11:54:40.276Z,100.00
2019-02-11T11:57:09.711Z,100.00
2019-02-11T11:59:39.025Z,100.00
2019-02-11T12:02:07.843Z,100.00
2019-02-11T12:04:36.453Z,100.00
2019-02-11T12:07:05.774Z,100.00
2019-02-11T12:09:35.141Z,100.00
2019-02-11T12:12:04.714Z,100.00
2019-02-11T12:14:34.027Z,100.00
2019-02-11T12:17:03.679Z,100.00
2019-02-11T12:19:52.585Z,100.00
2019-02-11T12:22:21.935Z,100.00
2019-02-11T12:24:51.248Z,100.00
2019-02-11T12:27:20.566Z,100.00
2019-02-11T12:29:49.890Z,100.00
2019-02-11T12:32:18.415Z,100.00
2019-02-11T12:34:47.038Z,100.00
2019-02-11T12:37:16.402Z,100.00
2019-02-11T12:39:45.708Z,100.00
2019-02-11T12:42:15.123Z,100.00
2019-02-11T12:44:44.497Z,100.00
2019-02-11T12:47:15.258Z,100.00
2019-02-11T12:50:03.871Z,100.00
2019-02-11T12:52:32.493Z,100.00
2019-02-11T12:55:01.807Z,100.00
2019-02-11T12:57:31.137Z,100.00
2019-02-11T12:59:59.647Z,100.00
2019-02-11T13:02:28.987Z,100.00
2019-02-11T13:04:58.310Z,100.00
2019-02-11T13:07:27.640Z,100.00
2019-02-11T13:09:56.973Z,100.00
2019-02-11T13:12:26.276Z,100.00
2019-02-11T13:14:55.590Z,100.00
2019-02-11T13:17:34.076Z,100.00
2019-02-11T13:20:14.273Z,100.00
2019-02-11T13:22:42.877Z,100.00
2019-02-11T13:28:14.210Z,100.00
2019-02-11T13:30:42.614Z,100.00
2019-02-11T13:33:11.525Z,100.00
2019-02-11T13:35:40.975Z,100.00
2019-02-11T13:38:10.305Z,100.00
2019-02-11T13:40:39.634Z,100.00
2019-02-11T13:43:09.072Z,100.00
2019-02-11T13:45:38.374Z,100.00
2019-02-11T13:48:07.708Z,100.00
2019-02-11T13:50:36.351Z,100.00
2019-02-11T13:53:05.755Z,100.00
2019-02-11T13:55:35.267Z,100.00
2019-02-11T14:01:09.122Z,100.00
2019-02-11T14:03:38.571Z,100.00
2019-02-11T14:06:08.008Z,100.00
2019-02-11T14:08:37.351Z,100.00
2019-02-11T14:11:06.171Z,100.00
2019-02-11T14:13:35.574Z,100.00
2019-02-11T14:16:04.916Z,100.00
2019-02-11T14:18:34.295Z,100.00
2019-02-11T14:24:06.617Z,100.00
2019-02-11T14:26:35.931Z,100.00
2019-02-11T14:29:05.343Z,100.00
2019-02-11T14:34:37.596Z,99.82
2019-02-11T14:37:06.907Z,100.00
2019-02-11T14:39:35.534Z,99.11
2019-02-11T14:45:10.727Z,97.65
2019-02-11T14:47:44.545Z,98.48
2019-02-11T14:53:37.917Z,97.02
2019-02-11T14:56:07.248Z,97.83
2019-02-11T14:58:36.674Z,97.87
2019-02-11T15:01:05.994Z,97.69
2019-02-11T15:03:35.326Z,97.48
2019-02-11T15:06:04.695Z,97.59
2019-02-11T15:08:34.057Z,98.14
2019-02-11T15:11:03.399Z,98.30
2019-02-11T15:13:32.026Z,98.69
2019-02-11T15:16:02.822Z,98.97
2019-02-11T15:18:34.410Z,100.00
2019-02-11T15:21:21.269Z,100.00
2019-02-11T15:23:50.600Z,100.00
2019-02-11T15:26:19.918Z,100.00
2019-02-11T15:28:49.242Z,100.00
2019-02-11T15:31:38.398Z,100.00
2019-02-11T15:34:07.690Z,100.00
2019-02-11T15:36:37.076Z,100.00
2019-02-11T15:39:06.397Z,100.00
2019-02-11T15:41:35.717Z,100.00
2019-02-11T15:44:05.038Z,100.00
2019-02-11T15:46:34.365Z,100.00
2019-02-11T15:49:03.672Z,100.00
2019-02-11T15:51:32.999Z,100.00
2019-02-11T15:54:01.512Z,100.00
2019-02-11T15:56:30.846Z,100.00
2019-02-11T15:59:00.200Z,100.00
2019-02-11T16:01:29.545Z,100.00
2019-02-11T16:03:59.961Z,100.00
2019-02-11T16:06:48.093Z,100.00
2019-02-11T16:09:17.440Z,100.00
2019-02-11T16:11:46.761Z,100.00
2019-02-11T16:14:16.075Z,100.00
2019-02-11T16:16:45.743Z,100.00
2019-02-11T16:19:14.616Z,100.00
2019-02-11T16:21:43.933Z,100.00
2019-02-11T16:24:13.251Z,100.00
2019-02-11T16:26:42.605Z,100.00
2019-02-11T16:29:11.930Z,100.00
2019-02-11T16:31:41.246Z,100.00
2019-02-11T16:34:10.577Z,100.00
2019-02-11T16:36:39.911Z,100.00
2019-02-11T16:39:09.231Z,100.00
2019-02-11T16:41:38.565Z,100.00
2019-02-11T16:44:07.907Z,100.00
2019-02-11T16:46:36.526Z,100.00
2019-02-11T16:49:05.876Z,100.00
2019-02-11T16:51:35.212Z,100.00
2019-02-11T16:54:05.620Z,100.00
2019-02-11T16:56:53.864Z,100.00
2019-02-11T16:59:23.208Z,100.00
2019-02-11T17:01:52.494Z,100.00
2019-02-11T17:04:21.819Z,100.00
2019-02-11T17:06:51.126Z,100.00
2019-02-11T17:09:20.444Z,100.00
2019-02-11T17:11:49.672Z,100.00
2019-02-11T17:14:18.477Z,100.00
2019-02-11T17:19:49.984Z,100.00
2019-02-11T17:22:19.296Z,100.00
2019-02-11T17:24:47.923Z,100.00
2019-02-11T17:27:17.253Z,100.00
2019-02-11T17:29:46.596Z,100.00
2019-02-11T17:32:15.910Z,100.00
2019-02-11T17:34:45.315Z,100.00
2019-02-11T17:37:14.644Z,100.00
2019-02-11T17:39:43.959Z,100.00
2019-02-11T17:42:13.300Z,100.00
2019-02-11T17:44:42.605Z,100.00
2019-02-11T17:47:11.035Z,100.00
2019-02-11T17:49:40.367Z,100.00
2019-02-11T17:55:06.566Z,100.00
2019-02-11T17:57:35.285Z,100.00
2019-02-11T18:00:06.345Z,100.00
2019-02-11T18:02:35.656Z,100.00
2019-02-11T18:05:05.167Z,100.00
2019-02-11T18:07:34.495Z,100.00
2019-02-11T18:10:04.374Z,100.00
2019-02-11T18:12:33.001Z,100.00
2019-02-11T18:15:01.910Z,100.00
2019-02-11T18:17:31.237Z,100.00
2019-02-11T18:20:00.632Z,100.00
2019-02-11T18:22:30.074Z,100.00
2019-02-11T18:24:59.432Z,100.00
2019-02-11T18:27:28.885Z,100.00
2019-02-11T18:29:58.194Z,100.00
2019-02-11T18:32:27.620Z,100.00
2019-02-11T18:34:56.952Z,100.00
2019-02-11T18:37:26.253Z,100.00
2019-02-11T18:39:54.671Z,100.00
2019-02-11T18:42:23.493Z,100.00
2019-02-11T18:44:52.820Z,100.00
2019-02-11T18:47:22.149Z,100.00
2019-02-11T18:49:51.466Z,100.00
2019-02-11T18:52:20.793Z,100.00
2019-02-11T18:54:50.103Z,100.00
2019-02-11T18:57:19.473Z,100.00
2019-02-11T18:59:48.803Z,100.00
2019-02-11T19:02:18.125Z,100.00
2019-02-11T19:04:47.445Z,100.00
2019-02-11T19:07:16.971Z,100.00
2019-02-11T19:09:45.777Z,100.00
2019-02-11T19:12:15.204Z,100.00
2019-02-11T19:14:43.830Z,100.00
2019-02-11T19:17:13.150Z,100.00
2019-02-11T19:19:43.422Z,100.00
2019-02-11T19:22:31.690Z,100.00
2019-02-11T19:25:01.021Z,100.00
2019-02-11T19:27:30.330Z,100.00
2019-02-11T19:29:59.647Z,100.00
2019-02-11T19:32:29.071Z,100.00
2019-02-11T19:34:58.037Z,100.00
2019-02-11T19:37:26.557Z,100.00
2019-02-11T19:39:55.169Z,100.00
2019-02-11T19:42:24.488Z,100.00
2019-02-11T19:44:53.823Z,100.00
2019-02-11T19:47:23.146Z,100.00
2019-02-11T19:49:52.146Z,100.00
2019-02-11T19:52:40.882Z,100.00
2019-02-11T19:57:53.526Z,100.00
2019-02-11T20:00:22.979Z,100.00
2019-02-11T20:02:52.272Z,100.00
2019-02-11T20:05:21.646Z,100.00
2019-02-11T20:07:50.998Z,100.00
2019-02-11T20:10:19.924Z,100.00
2019-02-11T20:12:48.448Z,100.00
2019-02-11T20:15:19.509Z,100.00
2019-02-11T20:20:50.770Z,100.00
2019-02-11T20:23:20.132Z,100.00
2019-02-11T20:25:49.468Z,100.00
2019-02-11T20:28:18.790Z,100.00
2019-02-11T20:30:48.208Z,100.00
2019-02-11T20:33:17.519Z,100.00
2019-02-11T20:35:46.882Z,100.00
2019-02-11T20:38:16.227Z,100.00
2019-02-11T20:40:45.559Z,100.00
2019-02-11T20:43:14.876Z,100.00
2019-02-11T20:45:44.218Z,100.00
2019-02-11T20:48:12.870Z,100.00
2019-02-11T20:50:41.412Z,100.00
2019-02-11T20:53:10.724Z,100.00
2019-02-11T20:55:40.051Z,100.00
2019-02-11T20:58:09.365Z,100.00
2019-02-11T21:00:38.691Z,100.00
2019-02-11T21:03:08.722Z,100.00
2019-02-11T21:05:57.247Z,100.00
2019-02-11T21:08:26.562Z,100.00
2019-02-11T21:10:54.986Z,100.00
2019-02-11T21:13:24.311Z,100.00
2019-02-11T21:15:53.321Z,100.00
2019-02-11T21:18:21.843Z,100.00
2019-02-11T21:20:51.159Z,100.00
2019-02-11T21:23:20.465Z,100.00
2019-02-11T21:25:50.015Z,100.00
2019-02-11T21:28:19.318Z,100.00
2019-02-11T21:33:55.218Z,100.00
2019-02-11T21:36:24.563Z,100.00
2019-02-11T21:38:53.890Z,100.00
2019-02-11T21:41:23.198Z,100.00
2019-02-11T21:43:52.519Z,100.00
2019-02-11T21:46:21.827Z,100.00
2019-02-11T21:48:51.139Z,100.00
2019-02-11T21:51:20.461Z,100.00
2019-02-11T21:53:49.783Z,100.00
2019-02-11T21:56:19.107Z,100.00
2019-02-11T22:01:30.430Z,100.00
2019-02-11T22:03:59.748Z,100.00
2019-02-11T22:06:28.264Z,100.00
2019-02-11T22:11:59.298Z,100.00
2019-02-11T22:14:27.797Z,100.00
2019-02-11T22:16:57.117Z,100.00
2019-02-11T22:19:26.435Z,100.00
2019-02-11T22:21:55.762Z,100.00
2019-02-11T22:24:25.074Z,100.00
2019-02-11T22:26:54.394Z,100.00
2019-02-11T22:29:23.711Z,100.00
2019-02-11T22:31:53.039Z,100.00
2019-02-11T22:34:22.373Z,100.00
2019-02-11T22:36:51.695Z,100.00
2019-02-11T22:39:21.013Z,100.00
2019-02-11T22:41:49.621Z,100.00
2019-02-11T22:44:18.136Z,100.00
2019-02-11T22:46:47.458Z,100.00
2019-02-11T22:49:16.778Z,100.00
2019-02-11T22:51:46.103Z,100.00
2019-02-11T22:54:15.417Z,100.00
2019-02-11T22:56:44.741Z,100.00
2019-02-11T22:59:14.102Z,100.00
2019-02-11T23:01:43.410Z,100.00
2019-02-11T23:04:11.926Z,100.00
2019-02-11T23:06:40.447Z,100.00
2019-02-11T23:09:12.627Z,100.00
2019-02-11T23:11:41.146Z,100.00
2019-02-11T23:14:10.478Z,100.00
2019-02-11T23:16:39.809Z,100.00
2019-02-11T23:19:09.119Z,100.00
2019-02-11T23:21:38.426Z,100.00
2019-02-11T23:27:10.147Z,100.00
2019-02-11T23:29:39.464Z,100.00
2019-02-11T23:32:08.785Z,100.00
2019-02-11T23:34:38.097Z,100.00
2019-02-11T23:37:07.426Z,100.00
2019-02-11T23:39:36.739Z,100.00
2019-02-11T23:42:05.257Z,100.00
2019-02-11T23:44:34.583Z,100.00
2019-02-11T23:47:03.899Z,100.00
2019-02-11T23:49:33.224Z,100.00
2019-02-11T23:52:02.663Z,100.00
2019-02-11T23:54:32.109Z,100.00
2019-02-11T23:57:01.427Z,100.00
2019-02-11T23:59:30.834Z,100.00
